Time;durP1;ratioP1;P1;durP2;ratioP2;P2;SDS_P1;SDS_P2;PMS_P1;PMS_P2;Temp;Humidity;BMP_temperature;BMP_pressure;BME280_temperature;BME280_humidity;BME280_pressure;Samples;Min_cycle;Max_cycle;Signal;HPM_P1;HPM_P2
2021/10/10 00:01:43;;;;;;;31.95;19.45;;;8.50;99.90;;;;;;5109225;28;20031;-84
2021/10/10 00:04:09;;;;;;;31.98;19.75;;;8.50;99.90;;;;;;5093148;28;20036;-84
2021/10/10 00:06:35;;;;;;;29.35;19.13;;;8.50;99.90;;;;;;5108863;28;20043;-84
2021/10/10 00:09:02;;;;;;;28.75;19.00;;;8.40;99.90;;;;;;5109303;28;20039;-84
2021/10/10 00:11:28;;;;;;;27.20;19.42;;;8.50;99.90;;;;;;5092022;28;20046;-84
2021/10/10 00:13:54;;;;;;;27.38;20.02;;;8.40;99.90;;;;;;5092409;28;20043;-84
2021/10/10 00:16:20;;;;;;;33.17;20.17;;;8.40;99.90;;;;;;5109146;28;20043;-84
2021/10/10 00:18:46;;;;;;;34.72;20.13;;;8.40;99.90;;;;;;5109447;28;20045;-84
2021/10/10 00:21:11;;;;;;;36.58;22.02;;;8.40;99.90;;;;;;5143329;27;20085;-84
2021/10/10 00:23:37;;;;;;;26.58;17.92;;;8.50;99.90;;;;;;5092731;28;20136;-84
2021/10/10 00:26:03;;;;;;;27.67;19.65;;;8.40;99.90;;;;;;5091748;28;20368;-84
2021/10/10 00:28:29;;;;;;;26.73;18.48;;;8.50;99.90;;;;;;5058508;28;20519;-84
2021/10/10 00:30:57;;;;;;;33.85;20.70;;;8.40;99.90;;;;;;5109246;28;20040;-84
2021/10/10 00:33:23;;;;;;;29.13;20.08;;;8.30;99.90;;;;;;5076053;28;20128;-84
2021/10/10 00:35:49;;;;;;;26.60;19.60;;;8.30;99.90;;;;;;5109455;28;20040;-84
2021/10/10 00:38:15;;;;;;;32.53;19.88;;;8.30;99.90;;;;;;5142922;27;20427;-84
2021/10/10 00:40:40;;;;;;;29.23;18.92;;;8.40;99.90;;;;;;5108667;28;20572;-84
2021/10/10 00:43:06;;;;;;;29.75;19.95;;;8.30;99.90;;;;;;5108583;28;20058;-84
2021/10/10 00:45:33;;;;;;;29.90;18.90;;;8.20;99.90;;;;;;5108248;28;20035;-84
2021/10/10 00:48:00;;;;;;;30.90;21.52;;;8.30;99.90;;;;;;5108566;28;20082;-84
2021/10/10 00:50:26;;;;;;;31.48;20.55;;;8.30;99.90;;;;;;5074362;28;20031;-84
2021/10/10 00:52:53;;;;;;;28.70;20.25;;;8.20;99.90;;;;;;5074705;28;20039;-84
2021/10/10 00:55:21;;;;;;;32.85;19.55;;;8.30;99.90;;;;;;5108807;28;20399;-83
2021/10/10 00:57:49;;;;;;;31.15;19.88;;;8.20;99.90;;;;;;5107104;28;20059;-84
2021/10/10 01:00:16;;;;;;;26.13;19.20;;;8.20;99.90;;;;;;5091570;28;20482;-84
2021/10/10 01:02:43;;;;;;;28.42;18.13;;;8.20;99.90;;;;;;5108739;28;20399;-84
2021/10/10 01:05:11;;;;;;;29.42;19.70;;;8.20;99.90;;;;;;5087692;28;20425;-84
2021/10/10 01:07:37;;;;;;;32.10;20.20;;;8.10;99.90;;;;;;5111337;27;20043;-84
2021/10/10 01:10:07;;;;;;;28.02;18.73;;;8.10;99.90;;;;;;5108514;28;20509;-84
2021/10/10 01:12:33;;;;;;;24.83;19.17;;;8.10;99.90;;;;;;5090853;28;20036;-84
2021/10/10 01:15:01;;;;;;;27.88;18.45;;;8.10;99.90;;;;;;5108160;28;20043;-84
2021/10/10 01:17:27;;;;;;;27.95;17.40;;;8.00;99.90;;;;;;5102951;28;20039;-84
2021/10/10 01:19:54;;;;;;;25.08;18.98;;;8.00;99.90;;;;;;5090653;28;20399;-84
2021/10/10 01:22:20;;;;;;;31.25;20.60;;;7.90;99.90;;;;;;5107260;28;20040;-84
2021/10/10 01:24:47;;;;;;;31.75;18.75;;;7.90;99.90;;;;;;5107613;28;20035;-84
2021/10/10 01:27:13;;;;;;;33.25;20.50;;;7.90;99.90;;;;;;5090504;28;20608;-84
2021/10/10 01:29:39;;;;;;;27.55;18.02;;;7.80;99.90;;;;;;5090781;28;20047;-84
2021/10/10 01:32:05;;;;;;;29.17;19.20;;;7.80;99.90;;;;;;5073811;28;20054;-84
2021/10/10 01:34:31;;;;;;;30.13;19.48;;;7.80;99.90;;;;;;5108247;28;20043;-84
2021/10/10 01:36:57;;;;;;;29.17;19.45;;;7.80;99.90;;;;;;5090379;28;20044;-84
2021/10/10 01:39:22;;;;;;;28.10;18.85;;;7.80;99.90;;;;;;5074168;28;20039;-83
2021/10/10 01:41:48;;;;;;;22.50;16.98;;;7.70;99.90;;;;;;5106782;28;20039;-84
2021/10/10 01:44:15;;;;;;;29.52;18.88;;;7.80;99.90;;;;;;5055930;28;20474;-84
2021/10/10 01:46:42;;;;;;;27.38;18.23;;;7.80;99.90;;;;;;5090247;28;20039;-84
2021/10/10 01:49:08;;;;;;;30.85;18.30;;;7.80;99.90;;;;;;5090384;28;20043;-84
2021/10/10 01:51:35;;;;;;;24.70;17.58;;;7.80;99.90;;;;;;5106895;28;20414;-84
2021/10/10 01:54:01;;;;;;;33.83;17.95;;;7.70;99.90;;;;;;5107283;28;20327;-84
2021/10/10 01:56:27;;;;;;;27.92;17.30;;;7.80;99.90;;;;;;5069743;28;20139;-84
2021/10/10 01:58:53;;;;;;;24.30;17.75;;;7.70;99.90;;;;;;5121766;27;20068;-84
2021/10/10 02:01:19;;;;;;;24.83;17.42;;;7.70;99.90;;;;;;5092070;28;20074;-84
2021/10/10 02:03:45;;;;;;;26.63;17.60;;;7.70;99.90;;;;;;5107421;28;20047;-84
2021/10/10 02:06:10;;;;;;;27.48;16.67;;;7.60;99.90;;;;;;5090923;28;20355;-84
2021/10/10 02:08:36;;;;;;;25.85;16.92;;;7.60;99.90;;;;;;5141223;27;20096;-84
2021/10/10 02:11:02;;;;;;;21.15;15.68;;;7.60;99.90;;;;;;5106704;28;20848;-84
2021/10/10 02:13:27;;;;;;;23.40;16.85;;;7.60;99.90;;;;;;5106415;28;20031;-83
2021/10/10 02:15:53;;;;;;;22.83;14.70;;;7.60;99.90;;;;;;5106470;28;20180;-84
2021/10/10 02:18:19;;;;;;;20.10;15.43;;;7.60;99.90;;;;;;5140926;27;20104;-84
2021/10/10 02:20:45;;;;;;;20.73;15.55;;;7.60;99.90;;;;;;5105506;28;20035;-84
2021/10/10 02:23:10;;;;;;;23.95;15.98;;;7.50;99.90;;;;;;5106534;28;20503;-84
2021/10/10 02:25:36;;;;;;;23.63;14.18;;;7.50;99.90;;;;;;5089506;28;20057;-84
2021/10/10 02:28:02;;;;;;;20.70;14.50;;;7.50;99.90;;;;;;5107867;28;20044;-82
2021/10/10 02:30:27;;;;;;;20.13;14.57;;;7.50;99.90;;;;;;5089717;28;20071;-84
2021/10/10 02:32:53;;;;;;;17.60;12.88;;;7.50;99.90;;;;;;5124676;28;20043;-84
2021/10/10 02:35:19;;;;;;;15.77;11.82;;;7.50;99.90;;;;;;5092998;28;20578;-84
2021/10/10 02:37:45;;;;;;;17.70;12.02;;;7.50;99.90;;;;;;5141007;27;20548;-84
2021/10/10 02:40:11;;;;;;;20.30;13.38;;;7.40;99.90;;;;;;5106572;28;20044;-83
2021/10/10 02:42:37;;;;;;;15.75;12.30;;;7.40;99.90;;;;;;5109025;28;20046;-84
2021/10/10 02:45:06;;;;;;;19.73;12.85;;;7.40;99.90;;;;;;5072327;28;20401;-84
2021/10/10 02:47:32;;;;;;;18.92;13.00;;;7.40;99.90;;;;;;5107661;28;20047;-84
2021/10/10 02:49:57;;;;;;;18.42;11.85;;;7.30;99.90;;;;;;5089858;28;20058;-84
2021/10/10 02:52:23;;;;;;;18.70;12.13;;;7.30;99.90;;;;;;5090541;28;20410;-84
2021/10/10 02:54:50;;;;;;;17.42;12.88;;;7.30;99.90;;;;;;5089717;28;20036;-84
2021/10/10 02:57:16;;;;;;;20.55;13.18;;;7.30;99.90;;;;;;5124084;28;20047;-84
2021/10/10 02:59:42;;;;;;;18.67;12.48;;;7.30;99.90;;;;;;5089727;28;20394;-84
2021/10/10 03:02:08;;;;;;;26.95;14.60;;;7.30;99.90;;;;;;5090510;28;20043;-83
2021/10/10 03:04:33;;;;;;;21.60;12.98;;;7.30;99.90;;;;;;5106783;28;20484;-84
2021/10/10 03:06:59;;;;;;;27.48;11.48;;;7.40;99.90;;;;;;5090218;28;20043;-84
2021/10/10 03:09:25;;;;;;;69.05;9.98;;;7.40;99.90;;;;;;5106372;28;20040;-84
2021/10/10 03:11:51;;;;;;;145.90;9.70;;;7.50;99.90;;;;;;5106863;28;20087;-84
2021/10/10 03:14:17;;;;;;;45.22;6.82;;;7.50;99.90;;;;;;5106429;28;20130;-84
2021/10/10 03:16:42;;;;;;;47.90;7.00;;;7.50;99.90;;;;;;5090019;28;20055;-83
2021/10/10 03:19:08;;;;;;;78.43;6.82;;;7.60;99.90;;;;;;5089601;28;20133;-83
2021/10/10 03:21:34;;;;;;;160.63;8.30;;;7.70;99.90;;;;;;5126969;27;20075;-84
2021/10/10 03:24:00;;;;;;;124.32;8.23;;;7.70;99.90;;;;;;5127809;27;20505;-84
2021/10/10 03:26:26;;;;;;;45.80;7.10;;;7.70;99.90;;;;;;5110152;28;20126;-84
2021/10/10 03:28:51;;;;;;;114.07;8.25;;;7.70;99.90;;;;;;5110749;28;20517;-84
2021/10/10 03:31:17;;;;;;;138.38;8.07;;;7.70;99.90;;;;;;5092607;28;20036;-83
2021/10/10 03:33:43;;;;;;;94.97;7.60;;;7.70;99.90;;;;;;5110782;28;20096;-84
2021/10/10 03:36:10;;;;;;;56.28;6.60;;;7.70;99.90;;;;;;5093138;28;20040;-84
2021/10/10 03:38:36;;;;;;;35.03;5.68;;;7.70;99.90;;;;;;5110481;28;20043;-84
2021/10/10 03:41:02;;;;;;;15.57;5.47;;;7.70;99.90;;;;;;5109932;28;20089;-84
2021/10/10 03:43:28;;;;;;;16.48;6.28;;;7.60;99.90;;;;;;5076856;28;20036;-84
2021/10/10 03:45:54;;;;;;;8.35;7.35;;;7.60;99.90;;;;;;5092415;28;20039;-84
2021/10/10 03:48:19;;;;;;;12.60;8.98;;;7.60;99.90;;;;;;5093113;28;20501;-83
2021/10/10 03:50:45;;;;;;;12.90;9.43;;;7.60;99.90;;;;;;5109476;28;20134;-83
2021/10/10 03:53:11;;;;;;;15.45;8.57;;;7.70;99.90;;;;;;5144748;27;20130;-84
2021/10/10 03:55:38;;;;;;;14.88;9.02;;;7.60;99.90;;;;;;5143701;27;20036;-84
2021/10/10 03:58:04;;;;;;;11.60;9.50;;;7.60;99.90;;;;;;5126882;27;20392;-84
2021/10/10 04:00:31;;;;;;;16.67;10.60;;;7.70;99.90;;;;;;5125875;27;20394;-84
2021/10/10 04:02:59;;;;;;;21.27;12.80;;;7.70;99.90;;;;;;5109975;28;20047;-83
2021/10/10 04:07:57;;;;;;;15.15;12.13;;;7.70;99.90;;;;;;5094105;28;20087;-84
2021/10/10 04:10:23;;;;;;;19.45;12.13;;;7.70;99.90;;;;;;5092464;28;20071;-84
2021/10/10 04:12:49;;;;;;;15.93;9.77;;;7.70;99.90;;;;;;5093040;28;20097;-84
2021/10/10 04:15:15;;;;;;;17.48;9.43;;;7.70;99.90;;;;;;5106702;28;20980;-84
2021/10/10 04:17:42;;;;;;;16.35;8.07;;;7.70;99.90;;;;;;5075894;28;20552;-84
2021/10/10 04:20:10;;;;;;;7.78;6.65;;;7.70;99.90;;;;;;5093980;28;20039;-84
2021/10/10 04:22:37;;;;;;;11.85;7.13;;;7.70;99.90;;;;;;5080984;28;20046;-84
2021/10/10 04:25:04;;;;;;;19.08;7.93;;;7.70;99.90;;;;;;5092417;28;20391;-83
2021/10/10 04:27:29;;;;;;;9.80;7.18;;;7.60;99.90;;;;;;5092104;28;20054;-84
2021/10/10 04:29:55;;;;;;;10.27;8.48;;;7.50;99.90;;;;;;5092300;28;20044;-83
2021/10/10 04:32:21;;;;;;;9.70;7.32;;;7.40;99.90;;;;;;5108636;28;20043;-83
2021/10/10 04:34:46;;;;;;;9.75;7.70;;;7.30;99.90;;;;;;5109306;28;20133;-84
2021/10/10 04:37:12;;;;;;;11.75;8.40;;;7.30;99.90;;;;;;5108466;28;20044;-84
2021/10/10 04:39:38;;;;;;;10.18;7.72;;;7.20;99.90;;;;;;5092576;28;20036;-84
2021/10/10 04:42:05;;;;;;;9.75;7.65;;;7.10;99.90;;;;;;5125346;27;20040;-84
2021/10/10 04:44:32;;;;;;;11.90;7.97;;;7.10;99.90;;;;;;5136008;27;20082;-84
2021/10/10 04:46:57;;;;;;;12.82;9.63;;;7.10;99.90;;;;;;5104914;28;20115;-83
2021/10/10 04:49:23;;;;;;;12.23;9.18;;;7.00;99.90;;;;;;5128401;27;20159;-85
2021/10/10 04:51:48;;;;;;;11.35;8.98;;;7.00;99.90;;;;;;5109301;27;20055;-84
2021/10/10 04:54:14;;;;;;;15.07;9.20;;;7.00;99.90;;;;;;5123012;27;20048;-84
2021/10/10 04:56:40;;;;;;;13.52;10.60;;;7.00;99.90;;;;;;5105003;27;20059;-84
2021/10/10 04:59:06;;;;;;;14.55;10.82;;;7.00;99.90;;;;;;5099686;28;20079;-84
2021/10/10 05:01:32;;;;;;;17.33;12.38;;;7.10;99.90;;;;;;5119895;27;20039;-84
2021/10/10 05:03:58;;;;;;;19.33;12.68;;;7.00;99.90;;;;;;5091427;28;20032;-84
2021/10/10 05:06:23;;;;;;;19.17;12.18;;;7.00;99.90;;;;;;5091573;28;20043;-84
2021/10/10 05:08:49;;;;;;;19.85;12.68;;;7.00;99.90;;;;;;5074807;28;20073;-84
2021/10/10 05:11:15;;;;;;;17.15;12.15;;;7.00;99.90;;;;;;5058174;28;20521;-84
2021/10/10 05:13:40;;;;;;;17.27;12.15;;;7.00;99.90;;;;;;5091200;28;20067;-84
2021/10/10 05:16:06;;;;;;;18.67;12.63;;;7.00;99.90;;;;;;5108374;28;20830;-84
2021/10/10 05:18:32;;;;;;;20.15;12.48;;;7.10;99.90;;;;;;5106782;28;20047;-83
2021/10/10 05:20:58;;;;;;;18.25;13.18;;;7.10;99.90;;;;;;5142534;27;20039;-84
2021/10/10 05:23:23;;;;;;;20.55;14.98;;;7.10;99.90;;;;;;5125358;27;20119;-83
2021/10/10 05:25:49;;;;;;;21.38;14.93;;;7.10;99.90;;;;;;5108130;28;20076;-83
2021/10/10 05:28:15;;;;;;;22.65;14.25;;;7.10;99.90;;;;;;5074443;28;20051;-84
2021/10/10 05:30:40;;;;;;;21.33;14.95;;;7.10;99.90;;;;;;5074379;28;20534;-84
2021/10/10 05:33:06;;;;;;;23.92;15.43;;;7.20;99.90;;;;;;5107696;28;20422;-84
2021/10/10 05:35:32;;;;;;;19.67;15.00;;;7.20;99.90;;;;;;5107648;28;20031;-83
2021/10/10 05:37:58;;;;;;;16.63;11.48;;;7.30;99.90;;;;;;5107969;28;20043;-83
2021/10/10 05:40:23;;;;;;;13.30;10.55;;;7.40;99.90;;;;;;5107949;28;20070;-84
2021/10/10 05:42:49;;;;;;;14.00;10.32;;;7.40;99.90;;;;;;5141426;27;20048;-84
2021/10/10 05:45:15;;;;;;;15.18;11.82;;;7.50;99.90;;;;;;5090795;28;20429;-84
2021/10/10 05:47:40;;;;;;;20.95;13.30;;;7.50;99.90;;;;;;5107527;28;20043;-84
2021/10/10 05:50:07;;;;;;;18.48;13.13;;;7.50;99.90;;;;;;5106462;28;20124;-84
2021/10/10 05:52:33;;;;;;;16.65;11.88;;;7.40;99.90;;;;;;5107115;28;20047;-84
2021/10/10 05:54:59;;;;;;;15.40;11.60;;;7.40;99.90;;;;;;5089607;28;20045;-84
2021/10/10 05:57:33;;;;;;;13.95;11.68;;;7.40;99.90;;;;;;5107130;28;20051;-84
2021/10/10 06:00:02;;;;;;;14.38;11.63;;;7.40;99.90;;;;;;5107388;28;20035;-84
2021/10/10 06:02:30;;;;;;;19.17;12.20;;;7.40;99.90;;;;;;5141633;27;20084;-84
2021/10/10 06:04:55;;;;;;;16.63;12.50;;;7.50;99.90;;;;;;5106631;28;20046;-84
2021/10/10 06:07:22;;;;;;;18.83;13.27;;;7.50;99.90;;;;;;5137723;27;20047;-84
2021/10/10 06:09:47;;;;;;;18.45;13.35;;;7.50;99.90;;;;;;5107444;28;20035;-84
2021/10/10 06:12:13;;;;;;;15.52;12.00;;;7.50;99.90;;;;;;5107092;28;20130;-84
2021/10/10 06:14:39;;;;;;;17.33;12.65;;;7.60;99.90;;;;;;5090342;28;20112;-84
2021/10/10 06:17:06;;;;;;;19.27;12.50;;;7.50;99.90;;;;;;5107764;28;20051;-84
2021/10/10 06:19:33;;;;;;;15.35;12.02;;;7.50;99.90;;;;;;5106188;28;20067;-84
2021/10/10 06:21:58;;;;;;;13.60;11.80;;;7.50;99.90;;;;;;5091266;28;20441;-84
2021/10/10 06:24:24;;;;;;;18.83;11.95;;;7.50;99.90;;;;;;5107243;28;20028;-83
2021/10/10 06:26:50;;;;;;;15.85;12.13;;;7.50;99.90;;;;;;5125015;28;20490;-84
2021/10/10 06:29:17;;;;;;;19.33;13.85;;;7.50;99.90;;;;;;5124081;27;20040;-84
2021/10/10 06:31:43;;;;;;;20.23;13.93;;;7.50;99.90;;;;;;5127875;27;20055;-84
2021/10/10 06:34:09;;;;;;;21.30;15.43;;;7.60;99.90;;;;;;5084426;28;20048;-84
2021/10/10 06:36:34;;;;;;;25.10;16.55;;;7.60;99.90;;;;;;5090447;28;20042;-84
2021/10/10 06:39:00;;;;;;;24.67;15.20;;;7.60;99.90;;;;;;5073367;28;20505;-83
2021/10/10 06:41:26;;;;;;;21.23;15.05;;;7.50;99.90;;;;;;5073447;28;20406;-84
2021/10/10 06:43:51;;;;;;;18.45;13.23;;;7.50;99.90;;;;;;5107021;28;20118;-84
2021/10/10 06:46:17;;;;;;;19.63;14.52;;;7.50;99.90;;;;;;5106565;28;20034;-84
2021/10/10 06:48:43;;;;;;;17.88;13.75;;;7.50;99.90;;;;;;5107211;28;20048;-84
2021/10/10 06:51:10;;;;;;;18.52;13.68;;;7.60;99.90;;;;;;5069797;28;20039;-83
2021/10/10 06:53:35;;;;;;;21.48;14.48;;;7.60;99.90;;;;;;5118498;28;20115;-84
2021/10/10 06:56:04;;;;;;;22.42;13.65;;;7.60;99.90;;;;;;5088400;28;20193;-83
2021/10/10 06:58:33;;;;;;;22.08;15.50;;;7.60;99.90;;;;;;5096358;28;20044;-84
2021/10/10 07:00:59;;;;;;;24.40;16.83;;;7.70;99.90;;;;;;5110459;28;20517;-84
2021/10/10 07:03:25;;;;;;;24.38;15.75;;;7.70;99.90;;;;;;5110897;28;20036;-84
2021/10/10 07:05:51;;;;;;;22.50;14.73;;;7.70;99.90;;;;;;5110151;28;20066;-84
2021/10/10 07:08:17;;;;;;;23.90;15.90;;;7.70;99.90;;;;;;5128644;27;20522;-83
2021/10/10 07:10:42;;;;;;;23.80;15.05;;;7.70;99.90;;;;;;5093701;28;20085;-84
2021/10/10 07:13:08;;;;;;;21.83;15.10;;;7.70;99.90;;;;;;5093525;28;20143;-84
2021/10/10 07:15:34;;;;;;;23.17;15.43;;;7.70;99.90;;;;;;5110263;28;20097;-83
2021/10/10 07:18:04;;;;;;;23.15;16.20;;;7.80;99.90;;;;;;5093448;28;20050;-84
2021/10/10 07:20:51;;;;;;;25.00;16.83;;;7.80;99.90;;;;;;5108935;28;20044;-84
2021/10/10 07:25:42;;;;;;;32.42;19.70;;;8.00;99.90;;;;;;5093595;28;20090;-84
2021/10/10 07:28:07;;;;;;;25.98;18.08;;;8.10;99.90;;;;;;5059764;28;20130;-84
2021/10/10 07:30:33;;;;;;;27.83;18.50;;;8.20;99.90;;;;;;5093974;28;20054;-85
2021/10/10 07:32:59;;;;;;;27.38;18.17;;;8.20;99.90;;;;;;5110508;28;20453;-84
2021/10/10 07:35:24;;;;;;;23.77;18.10;;;8.30;99.90;;;;;;5093507;28;20047;-84
2021/10/10 07:37:50;;;;;;;26.85;18.92;;;8.40;99.90;;;;;;5093787;28;20044;-85
2021/10/10 07:40:16;;;;;;;25.80;17.80;;;8.40;99.90;;;;;;5109644;28;20032;-87
2021/10/10 07:42:41;;;;;;;23.17;18.00;;;8.50;99.90;;;;;;5076451;28;20075;-86
2021/10/10 07:45:10;;;;;;;27.30;19.85;;;8.50;99.90;;;;;;5076307;28;20050;-86
2021/10/10 07:50:09;;;;;;;29.95;19.38;;;8.60;99.90;;;;;;5106716;27;20087;-86
2021/10/10 07:52:35;;;;;;;27.67;19.02;;;8.60;99.90;;;;;;5086301;28;20426;-86
2021/10/10 07:55:01;;;;;;;29.50;20.75;;;8.70;99.90;;;;;;5109804;28;20046;-86
2021/10/10 07:57:28;;;;;;;32.30;21.50;;;8.80;99.90;;;;;;5072494;28;20453;-85
2021/10/10 07:59:54;;;;;;;34.20;22.15;;;8.80;99.90;;;;;;5073511;28;20392;-86
2021/10/10 08:02:19;;;;;;;32.80;21.98;;;8.90;99.90;;;;;;5127187;27;20038;-84
2021/10/10 08:04:45;;;;;;;29.88;22.52;;;8.90;99.90;;;;;;5122003;27;20517;-84
2021/10/10 08:07:11;;;;;;;36.75;23.20;;;9.00;99.90;;;;;;5091973;28;20043;-84
2021/10/10 08:09:36;;;;;;;35.58;22.58;;;9.00;99.90;;;;;;5071798;28;20116;-84
2021/10/10 08:12:02;;;;;;;31.05;21.77;;;9.10;99.90;;;;;;5123955;27;20048;-84
2021/10/10 08:14:28;;;;;;;35.83;21.83;;;9.10;99.90;;;;;;5089491;28;20398;-84
2021/10/10 08:16:54;;;;;;;36.45;23.38;;;9.20;99.90;;;;;;5108549;28;20047;-84
2021/10/10 08:19:19;;;;;;;37.97;23.88;;;9.20;99.90;;;;;;5088700;28;20067;-84
2021/10/10 08:21:45;;;;;;;35.08;22.38;;;9.30;99.90;;;;;;5108253;28;20036;-84
2021/10/10 08:24:12;;;;;;;42.80;24.45;;;9.30;99.90;;;;;;5092569;28;20517;-84
2021/10/10 08:26:37;;;;;;;30.90;23.02;;;9.30;99.90;;;;;;5076018;28;20046;-84
2021/10/10 08:29:03;;;;;;;40.03;22.52;;;9.30;99.90;;;;;;5105346;28;20032;-85
2021/10/10 08:31:29;;;;;;;37.38;23.75;;;9.30;99.90;;;;;;5096323;28;20460;-85
2021/10/10 08:33:55;;;;;;;39.83;23.52;;;9.30;99.90;;;;;;5091806;28;20044;-84
2021/10/10 08:36:21;;;;;;;40.30;25.58;;;9.30;99.90;;;;;;5090786;28;20044;-85
2021/10/10 08:38:47;;;;;;;33.53;23.92;;;9.30;99.90;;;;;;5091458;28;20054;-84
2021/10/10 08:41:18;;;;;;;34.55;24.23;;;9.40;99.90;;;;;;5106951;28;20040;-84
2021/10/10 08:43:46;;;;;;;36.00;24.83;;;9.40;99.90;;;;;;5139324;27;20388;-83
2021/10/10 08:46:14;;;;;;;42.35;24.98;;;9.40;99.90;;;;;;5088885;28;20063;-83
2021/10/10 08:48:40;;;;;;;40.78;25.20;;;9.40;99.90;;;;;;5107514;28;20090;-84
2021/10/10 08:51:05;;;;;;;35.20;25.15;;;9.40;99.90;;;;;;5108489;28;20083;-83
2021/10/10 08:53:31;;;;;;;31.60;23.67;;;9.40;99.90;;;;;;5090172;28;20055;-83
2021/10/10 08:55:57;;;;;;;34.47;24.17;;;9.40;99.90;;;;;;5121921;27;20040;-84
2021/10/10 08:58:25;;;;;;;34.00;24.80;;;9.50;99.90;;;;;;5137457;27;20040;-84
2021/10/10 09:01:04;;;;;;;39.80;26.80;;;9.50;99.90;;;;;;5125837;27;20394;-83
2021/10/10 09:03:29;;;;;;;40.10;28.00;;;9.60;99.90;;;;;;5089118;28;20044;-84
2021/10/10 09:05:57;;;;;;;46.60;27.52;;;9.60;99.90;;;;;;5090419;28;20043;-84
2021/10/10 09:08:22;;;;;;;38.15;27.30;;;9.70;99.90;;;;;;5108155;28;20047;-84
2021/10/10 09:10:59;;;;;;;44.45;30.27;;;9.80;99.90;;;;;;5089841;28;20039;-84
2021/10/10 09:13:33;;;;;;;51.45;31.80;;;9.90;99.90;;;;;;5106860;28;20054;-84
2021/10/10 09:15:58;;;;;;;45.63;32.75;;;10.00;99.90;;;;;;5135887;27;20063;-85
2021/10/10 09:18:39;;;;;;;47.53;33.15;;;10.10;99.90;;;;;;5084543;28;20075;-85
2021/10/10 09:21:27;;;;;;;53.85;34.92;;;10.10;99.90;;;;;;5088582;28;20039;-85
2021/10/10 09:23:56;;;;;;;57.83;34.20;;;10.20;99.90;;;;;;5110223;27;20491;-87
2021/10/10 09:26:21;;;;;;;54.45;37.03;;;10.30;99.90;;;;;;5090487;28;20042;-84
2021/10/10 09:28:48;;;;;;;61.00;38.10;;;10.40;99.90;;;;;;5089277;28;20036;-85
2021/10/10 09:31:15;;;;;;;58.92;39.25;;;10.60;99.90;;;;;;5101735;28;20047;-85
2021/10/10 09:33:54;;;;;;;71.75;44.50;;;10.60;99.90;;;;;;5088576;28;20042;-86
2021/10/10 09:36:25;;;;;;;70.95;43.92;;;10.80;99.90;;;;;;5089277;28;20047;-84
2021/10/10 09:42:03;;;;;;;73.15;44.83;;;11.00;99.90;;;;;;5116113;27;20047;-83
2021/10/10 09:44:28;;;;;;;71.72;43.35;;;11.10;99.90;;;;;;5104814;28;20075;-82
2021/10/10 09:46:58;;;;;;;69.82;44.83;;;11.20;99.90;;;;;;5107448;28;20100;-82
2021/10/10 09:49:26;;;;;;;67.25;44.17;;;11.30;99.90;;;;;;5107879;28;20039;-82
2021/10/10 09:51:53;;;;;;;66.10;42.67;;;11.40;99.90;;;;;;5107538;28;20122;-83
2021/10/10 09:54:19;;;;;;;70.75;45.45;;;11.50;99.90;;;;;;5136620;27;20035;-82
2021/10/10 09:57:02;;;;;;;68.22;45.42;;;11.60;99.90;;;;;;5131299;27;20207;-82
2021/10/10 09:59:28;;;;;;;79.47;44.28;;;11.70;99.90;;;;;;5106693;28;20055;-83
2021/10/10 10:01:54;;;;;;;71.47;43.50;;;11.80;99.90;;;;;;5089219;28;20035;-83
2021/10/10 10:04:19;;;;;;;72.20;44.72;;;11.90;99.90;;;;;;5105918;28;20039;-82
2021/10/10 10:06:45;;;;;;;74.50;45.63;;;12.00;99.90;;;;;;5107358;28;20130;-83
2021/10/10 10:09:12;;;;;;;80.05;48.00;;;12.10;99.90;;;;;;5139912;27;20040;-83
2021/10/10 10:11:39;;;;;;;71.95;44.70;;;12.10;99.90;;;;;;5105532;28;20045;-83
2021/10/10 10:14:15;;;;;;;73.50;47.42;;;12.20;99.90;;;;;;5106748;28;20412;-83
2021/10/10 10:16:43;;;;;;;76.88;45.92;;;12.30;99.90;;;;;;5122160;28;20395;-83
2021/10/10 10:19:15;;;;;;;79.93;45.38;;;12.40;99.90;;;;;;5108351;28;20126;-82
2021/10/10 10:21:41;;;;;;;70.05;44.92;;;12.40;99.90;;;;;;5107236;28;20136;-83
2021/10/10 10:24:11;;;;;;;72.82;44.20;;;12.50;99.90;;;;;;5106914;28;20051;-83
2021/10/10 10:26:37;;;;;;;70.82;43.47;;;12.60;99.90;;;;;;5107523;28;20490;-83
2021/10/10 10:29:06;;;;;;;74.65;45.13;;;12.60;99.90;;;;;;5090729;28;20038;-83
2021/10/10 10:31:35;;;;;;;73.65;44.70;;;12.70;99.90;;;;;;5094292;28;20047;-83
2021/10/10 10:34:27;;;;;;;70.43;43.70;;;12.70;99.90;;;;;;5094793;28;20047;-83
2021/10/10 10:37:00;;;;;;;80.65;45.72;;;12.70;99.90;;;;;;5113138;28;20048;-83
2021/10/10 10:39:39;;;;;;;80.43;45.58;;;12.70;99.90;;;;;;5112079;28;20040;-83
2021/10/10 10:42:10;;;;;;;78.95;45.63;;;12.70;99.90;;;;;;5111260;28;20035;-83
2021/10/10 10:44:42;;;;;;;76.43;44.60;;;12.80;99.90;;;;;;5112795;28;20067;-83
2021/10/10 10:47:10;;;;;;;73.93;46.00;;;12.80;99.90;;;;;;5111815;28;20051;-83
2021/10/10 10:49:54;;;;;;;72.57;45.13;;;12.80;99.90;;;;;;5109999;28;20127;-83
2021/10/10 10:52:40;;;;;;;72.60;44.85;;;12.80;99.90;;;;;;5094390;28;20502;-82
2021/10/10 10:55:05;;;;;;;77.80;47.28;;;12.90;99.90;;;;;;5111211;28;20394;-83
2021/10/10 10:57:32;;;;;;;74.22;45.67;;;12.90;99.90;;;;;;5112550;28;20055;-83
2021/10/10 11:00:08;;;;;;;74.68;45.67;;;12.90;99.90;;;;;;5112222;28;20027;-83
2021/10/10 11:03:05;;;;;;;74.88;46.40;;;12.90;99.90;;;;;;5112180;28;20028;-83
2021/10/10 11:05:40;;;;;;;71.82;41.95;;;13.00;99.90;;;;;;5111843;28;20038;-83
2021/10/10 11:08:35;;;;;;;64.57;42.40;;;13.00;99.90;;;;;;5110526;28;20047;-83
2021/10/10 11:11:04;;;;;;;75.78;44.45;;;13.00;99.90;;;;;;5088942;28;20066;-83
2021/10/10 11:13:57;;;;;;;69.10;44.15;;;13.10;99.90;;;;;;5095249;28;20047;-83
2021/10/10 11:16:26;;;;;;;63.17;38.15;;;13.10;99.90;;;;;;5111909;28;20039;-83
2021/10/10 11:19:05;;;;;;;59.78;38.30;;;13.10;99.90;;;;;;5110828;28;20893;-82
2021/10/10 11:21:36;;;;;;;66.95;39.30;;;13.20;99.90;;;;;;5111450;28;20040;-83
2021/10/10 11:24:05;;;;;;;61.35;38.65;;;13.20;99.90;;;;;;5111968;28;20466;-82
2021/10/10 11:26:36;;;;;;;55.33;35.58;;;13.30;99.90;;;;;;5134977;27;20043;-82
2021/10/10 11:29:15;;;;;;;59.10;36.83;;;13.50;99.90;;;;;;5110356;28;20075;-83
2021/10/10 11:31:42;;;;;;;58.17;36.38;;;13.60;99.90;;;;;;5110374;28;20564;-83
2021/10/10 11:34:10;;;;;;;61.10;37.92;;;13.60;99.90;;;;;;5110772;28;20047;-82
2021/10/10 11:36:46;;;;;;;56.83;34.85;;;13.60;99.90;;;;;;5111336;28;20042;-83
2021/10/10 11:39:13;;;;;;;60.08;36.40;;;13.50;99.90;;;;;;5110394;28;20376;-83
2021/10/10 11:41:44;;;;;;;57.00;34.30;;;13.50;99.90;;;;;;5109157;28;20142;-83
2021/10/10 11:44:12;;;;;;;52.80;34.47;;;13.50;99.90;;;;;;5110621;28;20402;-83
2021/10/10 11:46:47;;;;;;;53.22;34.97;;;13.40;99.90;;;;;;5110543;28;20043;-83
2021/10/10 11:49:25;;;;;;;57.88;36.35;;;13.40;99.90;;;;;;5109852;28;20160;-84
2021/10/10 11:51:51;;;;;;;49.00;30.92;;;13.50;99.90;;;;;;5111327;28;20541;-83
2021/10/10 11:54:32;;;;;;;50.50;32.17;;;13.60;99.90;;;;;;5104220;28;20088;-83
2021/10/10 11:56:59;;;;;;;47.17;30.77;;;;;;;;;;5089372;28;20087;-83
2021/10/10 11:59:26;;;;;;;52.40;31.77;;;13.90;99.90;;;;;;5085981;28;20054;-83
2021/10/10 12:01:54;;;;;;;48.63;32.13;;;13.90;99.90;;;;;;5091384;28;20048;-83
2021/10/10 12:04:20;;;;;;;46.78;30.25;;;14.00;99.90;;;;;;5089934;28;20380;-84
2021/10/10 12:06:47;;;;;;;50.53;30.58;;;14.10;99.90;;;;;;5115746;27;20418;-83
2021/10/10 12:09:13;;;;;;;43.38;28.10;;;14.10;99.90;;;;;;5088550;28;20070;-82
2021/10/10 12:11:40;;;;;;;50.67;30.80;;;14.20;99.90;;;;;;5100679;28;20032;-83
2021/10/10 12:14:07;;;;;;;45.83;29.20;;;14.20;99.90;;;;;;5106504;28;20127;-83
2021/10/10 12:16:43;;;;;;;46.92;28.63;;;14.20;99.90;;;;;;5103938;28;20119;-83
2021/10/10 12:19:12;;;;;;;45.65;28.80;;;14.30;99.90;;;;;;5107402;28;20036;-83
2021/10/10 12:21:38;;;;;;;41.50;27.92;;;14.30;99.90;;;;;;5089821;28;20387;-83
2021/10/10 12:24:09;;;;;;;40.72;29.00;;;14.30;99.90;;;;;;5120077;27;20047;-83
2021/10/10 12:26:44;;;;;;;43.47;28.80;;;14.30;99.90;;;;;;5102590;28;20064;-83
2021/10/10 12:29:20;;;;;;;44.55;29.77;;;14.40;99.90;;;;;;5091202;28;20097;-83
2021/10/10 12:31:46;;;;;;;47.50;29.38;;;14.40;99.90;;;;;;5090324;27;20042;-83
2021/10/10 12:34:12;;;;;;;42.83;27.80;;;14.50;99.90;;;;;;5080138;28;20402;-83
2021/10/10 12:36:48;;;;;;;42.17;29.45;;;14.50;99.90;;;;;;5122583;27;20044;-83
2021/10/10 12:39:15;;;;;;;49.05;30.52;;;14.60;99.90;;;;;;5084317;28;20503;-84
2021/10/10 12:41:41;;;;;;;43.67;29.00;;;14.50;99.90;;;;;;5080967;28;20040;-83
2021/10/10 12:44:09;;;;;;;43.33;28.63;;;14.50;99.90;;;;;;5112814;27;20461;-83
2021/10/10 12:46:55;;;;;;;44.05;28.35;;;14.50;99.90;;;;;;5087985;28;20463;-84
2021/10/10 12:49:31;;;;;;;41.05;26.60;;;14.50;99.90;;;;;;5116050;27;20050;-83